Time;durP1;ratioP1;P1;durP2;ratioP2;P2;SDS_P1;SDS_P2;PMS_P1;PMS_P2;Temp;Humidity;BMP_temperature;BMP_pressure;BME280_temperature;BME280_humidity;BME280_pressure;Samples;Min_cycle;Max_cycle;Signal;HPM_P1;HPM_P2
2021/09/24 00:01:12;;;;;;;10.37;9.57;;;18.50;99.90;;;;;;5015912;28;20180;-71
2021/09/24 00:03:38;;;;;;;12.03;10.47;;;18.40;99.90;;;;;;5051679;28;20177;-68
2021/09/24 00:06:05;;;;;;;11.43;10.27;;;18.50;99.90;;;;;;5052045;28;20644;-68
2021/09/24 00:08:32;;;;;;;11.30;10.10;;;18.50;99.90;;;;;;5033786;28;20331;-67
2021/09/24 00:10:58;;;;;;;11.00;10.00;;;18.50;99.90;;;;;;5031923;28;20978;-68
2021/09/24 00:13:24;;;;;;;10.70;9.60;;;18.50;99.90;;;;;;5050228;28;20911;-68
2021/09/24 00:15:51;;;;;;;12.00;10.80;;;18.50;99.90;;;;;;5051450;28;20412;-67
2021/09/24 00:18:17;;;;;;;12.77;11.00;;;18.50;99.90;;;;;;5050726;28;20927;-68
2021/09/24 00:20:45;;;;;;;11.50;10.50;;;18.50;99.90;;;;;;5051657;28;20409;-68
2021/09/24 00:23:11;;;;;;;11.57;10.57;;;18.50;99.90;;;;;;5033172;28;20261;-68
2021/09/24 00:25:37;;;;;;;13.57;12.23;;;18.50;99.90;;;;;;5031241;28;20469;-67
2021/09/24 00:28:05;;;;;;;11.90;10.80;;;18.50;99.90;;;;;;5031839;28;20500;-67
2021/09/24 00:30:32;;;;;;;14.60;12.00;;;18.50;99.90;;;;;;5030988;28;20449;-67
2021/09/24 00:32:58;;;;;;;12.40;11.33;;;18.60;99.90;;;;;;5047345;28;20420;-67
2021/09/24 00:35:24;;;;;;;14.03;12.77;;;18.60;99.90;;;;;;5050624;28;20419;-68
2021/09/24 00:37:50;;;;;;;12.73;11.63;;;18.60;99.90;;;;;;5051618;28;20443;-67
2021/09/24 00:40:15;;;;;;;13.80;12.57;;;18.50;99.90;;;;;;5033330;28;20582;-72
2021/09/24 00:42:42;;;;;;;14.30;12.90;;;18.60;99.90;;;;;;5031289;28;20397;-67
2021/09/24 00:45:09;;;;;;;15.57;14.10;;;18.60;99.90;;;;;;5031987;28;20182;-67
2021/09/24 00:47:35;;;;;;;15.53;13.90;;;18.50;99.90;;;;;;5031048;28;20495;-67
2021/09/24 00:50:03;;;;;;;15.73;14.13;;;18.50;99.90;;;;;;5046800;28;20558;-67
2021/09/24 00:52:28;;;;;;;15.90;14.40;;;18.50;99.90;;;;;;5050994;28;20416;-67
2021/09/24 00:54:55;;;;;;;16.57;15.07;;;18.50;99.90;;;;;;5051236;28;20442;-67
2021/09/24 00:57:20;;;;;;;16.90;15.30;;;18.50;99.90;;;;;;5050481;28;20669;-67
2021/09/24 00:59:51;;;;;;;15.97;14.27;;;18.50;99.90;;;;;;5038727;28;20429;-68
2021/09/24 01:02:17;;;;;;;18.83;14.80;;;18.50;99.90;;;;;;5034608;28;20189;-73
2021/09/24 01:04:44;;;;;;;15.10;13.70;;;18.50;99.90;;;;;;5035180;28;20459;-67
2021/09/24 01:07:12;;;;;;;16.17;14.67;;;18.50;99.90;;;;;;5050428;28;20415;-67
2021/09/24 01:09:39;;;;;;;17.60;15.77;;;18.50;99.90;;;;;;5053956;28;20436;-67
2021/09/24 01:12:05;;;;;;;15.63;14.13;;;18.50;99.90;;;;;;5054886;28;20795;-67
2021/09/24 01:14:31;;;;;;;17.60;15.60;;;18.50;99.90;;;;;;5053249;28;20416;-67
2021/09/24 01:16:58;;;;;;;16.60;15.10;;;18.50;99.90;;;;;;5054229;28;20424;-67
2021/09/24 01:19:24;;;;;;;16.30;14.80;;;18.50;99.90;;;;;;5054012;28;20428;-67
2021/09/24 01:21:50;;;;;;;16.93;15.33;;;18.50;99.90;;;;;;5054718;28;20778;-67
2021/09/24 01:24:16;;;;;;;16.80;14.63;;;18.60;99.90;;;;;;5054543;28;20507;-73
2021/09/24 01:26:50;;;;;;;17.73;15.83;;;18.60;99.90;;;;;;5054006;28;20443;-67
2021/09/24 01:29:17;;;;;;;17.57;15.97;;;18.60;99.90;;;;;;5040159;28;20474;-73
2021/09/24 01:31:43;;;;;;;17.10;15.50;;;18.60;99.90;;;;;;5033896;28;20456;-67
2021/09/24 01:34:09;;;;;;;17.53;15.77;;;18.60;99.90;;;;;;5034523;28;20524;-67
2021/09/24 01:36:35;;;;;;;18.63;16.10;;;18.60;99.90;;;;;;5048494;28;20495;-67
2021/09/24 01:39:07;;;;;;;18.50;16.33;;;18.60;99.90;;;;;;5054086;28;20795;-67
2021/09/24 01:41:36;;;;;;;19.77;17.73;;;18.60;99.90;;;;;;5053631;28;20391;-67
2021/09/24 01:44:02;;;;;;;19.13;17.23;;;18.60;99.90;;;;;;5054365;28;20405;-67
2021/09/24 01:46:28;;;;;;;19.43;17.17;;;18.60;99.90;;;;;;5038900;28;21003;-67
2021/09/24 01:48:53;;;;;;;18.57;16.63;;;18.60;99.90;;;;;;5034312;28;20492;-67
2021/09/24 01:51:19;;;;;;;21.83;18.90;;;18.60;99.90;;;;;;5015998;28;20201;-73
2021/09/24 01:53:45;;;;;;;21.63;17.97;;;18.60;99.90;;;;;;5033980;28;20224;-67
2021/09/24 01:56:11;;;;;;;20.33;18.00;;;18.60;99.90;;;;;;5016521;28;20181;-67
2021/09/24 01:58:36;;;;;;;21.43;18.80;;;18.60;99.90;;;;;;5045057;28;20951;-67
2021/09/24 02:01:02;;;;;;;21.83;19.40;;;18.60;99.90;;;;;;5054149;28;20640;-67
2021/09/24 02:03:28;;;;;;;25.87;21.27;;;18.60;99.90;;;;;;5053146;28;20177;-67
2021/09/24 02:05:54;;;;;;;27.73;21.90;;;18.50;99.90;;;;;;5053876;28;20384;-67
2021/09/24 02:08:20;;;;;;;24.63;20.77;;;18.50;99.90;;;;;;5053583;28;20269;-73
2021/09/24 02:10:45;;;;;;;29.97;24.03;;;18.60;99.90;;;;;;5040458;28;20202;-68
2021/09/24 02:13:11;;;;;;;28.93;22.27;;;18.50;99.90;;;;;;5033849;28;20190;-67
2021/09/24 02:15:37;;;;;;;32.10;24.40;;;18.50;99.90;;;;;;5015626;28;20178;-67
2021/09/24 02:18:02;;;;;;;29.73;23.93;;;18.50;99.90;;;;;;5033500;28;20530;-67
2021/09/24 02:20:28;;;;;;;31.60;25.93;;;18.50;99.90;;;;;;5015252;28;20171;-67
2021/09/24 02:22:54;;;;;;;32.50;25.77;;;18.60;99.90;;;;;;5033916;28;20630;-67
2021/09/24 02:25:20;;;;;;;36.87;27.40;;;18.50;99.90;;;;;;5015113;28;20820;-74
2021/09/24 02:27:46;;;;;;;33.93;27.33;;;18.50;99.90;;;;;;5033226;28;20177;-67
2021/09/24 02:30:12;;;;;;;34.27;27.40;;;18.50;99.90;;;;;;5033454;28;20579;-67
2021/09/24 02:32:38;;;;;;;40.50;27.57;;;18.50;99.90;;;;;;5032154;28;20179;-67
2021/09/24 02:35:05;;;;;;;32.27;24.93;;;18.50;99.90;;;;;;5033565;28;20428;-67
2021/09/24 02:37:30;;;;;;;36.53;29.30;;;18.50;99.90;;;;;;5042085;28;20420;-67
2021/09/24 02:39:56;;;;;;;34.17;28.27;;;18.50;99.90;;;;;;5053206;28;20904;-67
2021/09/24 02:42:22;;;;;;;35.97;27.53;;;18.50;99.90;;;;;;5052537;28;20261;-73
2021/09/24 02:44:48;;;;;;;33.57;26.30;;;18.50;99.90;;;;;;5053313;28;20224;-68
2021/09/24 02:47:14;;;;;;;33.03;26.17;;;18.50;99.90;;;;;;5052649;28;20705;-68
2021/09/24 02:49:41;;;;;;;32.90;25.60;;;18.50;99.90;;;;;;5052261;28;20181;-67
2021/09/24 02:52:08;;;;;;;30.00;24.53;;;18.50;99.90;;;;;;5052966;28;20447;-67
2021/09/24 02:54:34;;;;;;;33.20;24.90;;;18.60;99.90;;;;;;5052171;28;20408;-68
2021/09/24 02:57:00;;;;;;;33.50;25.33;;;18.60;99.90;;;;;;5035164;28;20430;-68
2021/09/24 02:59:26;;;;;;;34.00;25.53;;;18.60;99.90;;;;;;5037724;28;20417;-68
2021/09/24 03:01:54;;;;;;;31.47;24.63;;;18.60;99.90;;;;;;5032943;28;20223;-67
2021/09/24 03:04:20;;;;;;;31.77;25.87;;;18.60;99.90;;;;;;5032839;28;20204;-68
2021/09/24 03:06:46;;;;;;;33.40;25.73;;;18.60;99.90;;;;;;5032425;28;20405;-68
2021/09/24 03:09:12;;;;;;;33.37;26.03;;;18.60;99.90;;;;;;5032497;28;20420;-68
2021/09/24 03:11:37;;;;;;;34.60;25.87;;;18.60;99.90;;;;;;5048848;28;20221;-68
2021/09/24 03:14:03;;;;;;;29.60;25.37;;;18.60;99.90;;;;;;5052689;28;20178;-68
2021/09/24 03:16:29;;;;;;;32.60;26.13;;;18.60;99.90;;;;;;5051818;28;20209;-68
2021/09/24 03:18:55;;;;;;;31.27;25.30;;;18.60;99.90;;;;;;5052303;28;20172;-68
2021/09/24 03:21:21;;;;;;;31.30;24.47;;;18.60;99.90;;;;;;5052750;28;20304;-68
2021/09/24 03:23:46;;;;;;;29.53;23.63;;;18.60;99.90;;;;;;5033502;28;20569;-68
2021/09/24 03:26:12;;;;;;;26.60;23.00;;;18.60;99.90;;;;;;5032700;28;20690;-68
2021/09/24 03:28:38;;;;;;;30.90;23.10;;;18.60;99.90;;;;;;5031675;28;20171;-68
2021/09/24 03:31:04;;;;;;;23.30;20.57;;;18.60;99.90;;;;;;5032607;28;20487;-68
2021/09/24 03:33:30;;;;;;;27.17;21.60;;;18.60;99.90;;;;;;5031627;28;20433;-68
2021/09/24 03:35:56;;;;;;;24.70;20.00;;;18.60;99.90;;;;;;5032233;28;20463;-68
2021/09/24 03:38:22;;;;;;;26.37;21.20;;;18.50;99.90;;;;;;5032311;28;20881;-68
2021/09/24 03:40:48;;;;;;;25.20;21.27;;;18.50;99.90;;;;;;5014119;28;20263;-68
2021/09/24 03:43:14;;;;;;;27.27;24.37;;;18.50;99.90;;;;;;5032167;28;20170;-68
2021/09/24 03:45:39;;;;;;;28.30;22.30;;;18.50;99.90;;;;;;5031052;28;20229;-68
2021/09/24 03:48:05;;;;;;;25.43;22.93;;;18.50;99.90;;;;;;5032194;28;20500;-68
2021/09/24 03:50:31;;;;;;;23.37;20.40;;;18.50;99.90;;;;;;5031269;28;20205;-68
2021/09/24 03:52:57;;;;;;;25.60;22.90;;;18.50;99.90;;;;;;5014497;28;20257;-68
2021/09/24 03:55:23;;;;;;;26.50;22.67;;;18.50;99.90;;;;;;5014308;28;20765;-68
2021/09/24 03:57:48;;;;;;;25.03;21.93;;;18.50;99.90;;;;;;5030386;28;20421;-69
2021/09/24 04:00:15;;;;;;;25.07;21.87;;;18.50;99.90;;;;;;5031980;28;20688;-69
2021/09/24 04:02:41;;;;;;;27.60;24.23;;;18.50;99.90;;;;;;5031055;28;20181;-68
2021/09/24 04:05:08;;;;;;;26.40;22.53;;;18.50;99.90;;;;;;5017775;28;20427;-69
2021/09/24 04:07:34;;;;;;;25.53;21.60;;;18.50;99.90;;;;;;5040726;28;20417;-69
2021/09/24 04:10:00;;;;;;;25.50;21.60;;;18.50;99.90;;;;;;5031212;28;20567;-68
2021/09/24 04:12:26;;;;;;;27.77;23.47;;;18.50;99.90;;;;;;5030706;28;20551;-69
2021/09/24 04:14:52;;;;;;;26.67;23.77;;;18.50;99.90;;;;;;5031714;28;20743;-68
2021/09/24 04:17:17;;;;;;;26.27;21.53;;;18.50;99.90;;;;;;5045240;28;20186;-68
2021/09/24 04:19:43;;;;;;;26.73;24.03;;;18.50;99.90;;;;;;5050712;28;20174;-68
2021/09/24 04:22:09;;;;;;;27.70;23.83;;;18.50;99.90;;;;;;5051974;28;20207;-68
2021/09/24 04:24:35;;;;;;;28.40;23.77;;;18.50;99.90;;;;;;5050969;28;20724;-68
2021/09/24 04:27:01;;;;;;;26.07;23.20;;;18.60;99.90;;;;;;5051773;28;20526;-68
2021/09/24 04:29:27;;;;;;;27.73;23.07;;;18.50;99.90;;;;;;5037637;28;20421;-74
2021/09/24 04:31:53;;;;;;;31.37;25.30;;;18.60;99.90;;;;;;5031700;28;20293;-68
2021/09/24 04:34:18;;;;;;;30.00;26.80;;;18.60;99.90;;;;;;5014222;28;20681;-68
2021/09/24 04:36:44;;;;;;;30.13;25.77;;;18.60;99.90;;;;;;5034670;28;20170;-68
2021/09/24 04:39:10;;;;;;;29.33;23.90;;;18.60;99.90;;;;;;5035603;28;20166;-68
2021/09/24 04:41:37;;;;;;;31.60;25.53;;;18.60;99.90;;;;;;5034805;28;20238;-69
2021/09/24 04:44:03;;;;;;;32.70;27.93;;;18.60;99.90;;;;;;5051813;28;20428;-68
2021/09/24 04:46:29;;;;;;;30.10;24.87;;;18.60;99.90;;;;;;5054772;28;20451;-73
2021/09/24 04:48:54;;;;;;;31.27;27.93;;;18.60;99.90;;;;;;5054713;28;20455;-68
2021/09/24 04:51:20;;;;;;;30.90;25.60;;;18.60;99.90;;;;;;5055191;28;20213;-68
2021/09/24 04:53:46;;;;;;;33.20;26.70;;;18.60;99.90;;;;;;5054427;28;20277;-68
2021/09/24 04:56:12;;;;;;;35.77;26.83;;;18.60;99.90;;;;;;5041583;28;20626;-68
2021/09/24 04:58:37;;;;;;;32.43;25.80;;;18.60;99.90;;;;;;5034534;28;20543;-69
2021/09/24 05:01:03;;;;;;;30.87;26.07;;;18.60;99.90;;;;;;5043604;28;20541;-68
2021/09/24 05:03:29;;;;;;;35.00;27.53;;;18.60;99.90;;;;;;5038342;28;20193;-73
2021/09/24 05:05:54;;;;;;;33.50;28.50;;;18.60;99.90;;;;;;5035763;28;20186;-68
2021/09/24 05:08:20;;;;;;;35.03;27.10;;;18.50;99.90;;;;;;5041887;28;20257;-68
2021/09/24 05:10:46;;;;;;;34.00;29.50;;;18.50;99.90;;;;;;5034250;28;20213;-70
2021/09/24 05:13:11;;;;;;;33.07;28.83;;;18.50;99.90;;;;;;5041964;28;20181;-68
2021/09/24 05:15:37;;;;;;;34.90;26.67;;;18.50;99.90;;;;;;5053958;28;20213;-68
2021/09/24 05:18:03;;;;;;;34.10;25.57;;;18.60;99.90;;;;;;5044277;28;20196;-68
2021/09/24 05:20:29;;;;;;;33.03;27.67;;;18.60;99.90;;;;;;5034664;28;20273;-73
2021/09/24 05:22:56;;;;;;;33.90;26.07;;;18.60;99.90;;;;;;5034179;28;20170;-68
2021/09/24 05:25:22;;;;;;;36.20;28.63;;;18.60;99.90;;;;;;5034876;28;20889;-68
2021/09/24 05:27:49;;;;;;;31.87;26.50;;;18.50;99.90;;;;;;5033765;28;20417;-68
2021/09/24 05:30:15;;;;;;;36.37;29.53;;;18.60;99.90;;;;;;5035712;28;20756;-68
2021/09/24 05:32:41;;;;;;;31.23;25.50;;;18.60;99.90;;;;;;5044814;28;20452;-68
2021/09/24 05:35:08;;;;;;;34.27;26.50;;;18.50;99.90;;;;;;5034360;28;20830;-69
2021/09/24 05:37:34;;;;;;;30.17;24.83;;;18.60;99.90;;;;;;5047096;28;20490;-70
2021/09/24 05:39:59;;;;;;;28.97;24.60;;;18.50;99.90;;;;;;5054275;28;20526;-68
2021/09/24 05:42:25;;;;;;;34.37;26.60;;;18.50;99.90;;;;;;5054238;28;20410;-68
2021/09/24 05:44:51;;;;;;;31.97;25.87;;;18.50;99.90;;;;;;5053666;28;20180;-68
2021/09/24 05:47:17;;;;;;;34.87;27.03;;;18.50;99.90;;;;;;5066300;28;20221;-69
2021/09/24 05:49:42;;;;;;;32.87;28.80;;;18.60;99.90;;;;;;5072611;28;20185;-70
2021/09/24 05:52:08;;;;;;;34.03;25.77;;;18.50;99.90;;;;;;5054449;28;20209;-68
2021/09/24 05:54:34;;;;;;;35.13;25.83;;;18.50;99.90;;;;;;5068480;28;20181;-73
2021/09/24 05:57:00;;;;;;;32.03;26.17;;;18.50;99.90;;;;;;5071985;28;20180;-68
2021/09/24 05:59:25;;;;;;;30.33;26.80;;;18.50;99.90;;;;;;5054100;28;20669;-68
2021/09/24 06:01:51;;;;;;;32.43;25.40;;;18.50;99.90;;;;;;5053058;28;20178;-68
2021/09/24 06:04:19;;;;;;;36.47;25.90;;;18.50;99.90;;;;;;5054046;28;20536;-68
2021/09/24 06:06:46;;;;;;;30.60;23.90;;;18.50;99.90;;;;;;5052271;28;20177;-68
2021/09/24 06:09:11;;;;;;;35.73;27.37;;;18.50;99.90;;;;;;5057761;28;20412;-68
2021/09/24 06:11:37;;;;;;;37.30;27.30;;;18.50;99.90;;;;;;5073188;28;20616;-68
2021/09/24 06:14:03;;;;;;;34.50;25.80;;;18.50;99.90;;;;;;5073663;28;20185;-68
2021/09/24 06:16:29;;;;;;;34.97;26.30;;;18.50;99.90;;;;;;5067605;28;20177;-68
2021/09/24 06:18:55;;;;;;;31.63;25.10;;;18.50;99.90;;;;;;5067072;28;20781;-68
2021/09/24 06:21:21;;;;;;;38.60;25.23;;;18.50;99.90;;;;;;5073646;28;20260;-68
2021/09/24 06:23:48;;;;;;;33.13;28.33;;;18.50;99.90;;;;;;5053391;28;20169;-68
2021/09/24 06:26:14;;;;;;;33.97;26.27;;;18.60;99.90;;;;;;5053970;28;20884;-68
2021/09/24 06:28:40;;;;;;;33.37;25.70;;;18.60;99.90;;;;;;5052079;28;20405;-68
2021/09/24 06:31:05;;;;;;;29.00;22.03;;;18.60;99.90;;;;;;5059552;28;20535;-68
2021/09/24 06:33:31;;;;;;;39.83;25.90;;;18.60;99.90;;;;;;5073026;28;20181;-68
2021/09/24 06:35:57;;;;;;;38.97;27.67;;;18.60;99.90;;;;;;5072836;28;20185;-68
2021/09/24 06:38:23;;;;;;;32.93;26.40;;;18.60;99.90;;;;;;5056596;28;20899;-68
2021/09/24 06:40:49;;;;;;;37.80;27.90;;;18.60;99.90;;;;;;5052549;28;20277;-69
2021/09/24 06:43:14;;;;;;;38.60;27.20;;;18.60;99.90;;;;;;5053231;28;20174;-68
2021/09/24 06:45:41;;;;;;;34.67;25.20;;;18.70;99.90;;;;;;5065991;28;20225;-68
2021/09/24 06:48:07;;;;;;;36.43;25.67;;;18.60;99.90;;;;;;5046628;28;20197;-68
2021/09/24 06:50:33;;;;;;;33.97;24.73;;;18.60;99.90;;;;;;5041649;28;20457;-68
2021/09/24 06:52:59;;;;;;;33.70;24.30;;;18.60;99.90;;;;;;5048320;28;20481;-70
2021/09/24 06:55:26;;;;;;;34.87;24.90;;;18.60;99.90;;;;;;5045640;28;20479;-70
2021/09/24 06:57:53;;;;;;;30.90;24.37;;;18.60;99.90;;;;;;5016100;28;20421;-72
2021/09/24 07:00:19;;;;;;;38.40;26.10;;;18.70;99.90;;;;;;5036887;28;20441;-73
2021/09/24 07:02:46;;;;;;;34.93;25.60;;;18.70;99.90;;;;;;5024488;28;20447;-73
2021/09/24 07:05:12;;;;;;;37.03;26.37;;;18.80;99.90;;;;;;5043117;28;20867;-73
2021/09/24 07:07:39;;;;;;;37.23;25.33;;;18.90;99.90;;;;;;5018214;28;20417;-71
2021/09/24 07:10:05;;;;;;;37.77;25.70;;;18.90;99.90;;;;;;5032285;28;20424;-72
2021/09/24 07:12:31;;;;;;;40.93;26.40;;;18.80;99.90;;;;;;5033653;28;20461;-73
2021/09/24 07:14:57;;;;;;;43.03;29.93;;;18.80;99.90;;;;;;5041681;28;20694;-72
2021/09/24 07:17:22;;;;;;;40.83;29.43;;;18.70;99.90;;;;;;5050785;28;20178;-73
2021/09/24 07:19:48;;;;;;;39.47;28.80;;;18.60;99.90;;;;;;5032953;28;20334;-72
2021/09/24 07:22:15;;;;;;;42.10;28.23;;;18.60;99.90;;;;;;5039717;28;20174;-73
2021/09/24 07:24:41;;;;;;;45.93;30.30;;;18.60;99.90;;;;;;5051789;28;20169;-72
2021/09/24 07:27:07;;;;;;;41.63;27.67;;;18.50;99.90;;;;;;5045375;28;21199;-73
2021/09/24 07:29:33;;;;;;;44.27;29.50;;;18.50;99.90;;;;;;5022776;28;20174;-73
2021/09/24 07:31:59;;;;;;;38.50;26.10;;;18.50;99.90;;;;;;5031632;28;21138;-73
2021/09/24 07:34:25;;;;;;;36.13;25.40;;;18.40;99.90;;;;;;5033773;28;20662;-72
2021/09/24 07:36:51;;;;;;;40.07;25.63;;;18.40;99.90;;;;;;5045727;28;20455;-72
2021/09/24 07:39:17;;;;;;;39.70;26.90;;;18.40;99.90;;;;;;5041589;28;20423;-73
2021/09/24 07:41:43;;;;;;;38.43;25.60;;;18.40;99.90;;;;;;5045227;28;20432;-72
2021/09/24 07:44:09;;;;;;;39.20;26.37;;;18.40;99.90;;;;;;5040294;28;20778;-73
2021/09/24 07:46:35;;;;;;;37.17;23.47;;;18.40;99.90;;;;;;5045788;28;20304;-73
2021/09/24 07:49:03;;;;;;;35.03;24.97;;;18.40;99.90;;;;;;5041126;28;20175;-73
2021/09/24 07:51:29;;;;;;;41.83;26.63;;;18.40;99.90;;;;;;5041902;28;20486;-72
2021/09/24 07:53:55;;;;;;;35.43;27.10;;;18.40;99.90;;;;;;5043528;28;20499;-72
2021/09/24 07:56:22;;;;;;;33.30;24.60;;;18.40;99.90;;;;;;5036793;28;20175;-73
2021/09/24 07:58:47;;;;;;;33.93;24.23;;;18.40;99.90;;;;;;5039245;28;20436;-72
2021/09/24 08:01:13;;;;;;;33.07;23.07;;;18.40;99.90;;;;;;5025142;28;20408;-73
2021/09/24 08:03:39;;;;;;;37.50;26.40;;;18.40;99.90;;;;;;5044170;28;20181;-71
2021/09/24 08:06:05;;;;;;;38.33;26.20;;;18.30;99.90;;;;;;5051115;28;20243;-73
2021/09/24 08:08:31;;;;;;;32.30;24.33;;;18.30;99.90;;;;;;5025374;28;20698;-73
2021/09/24 08:10:57;;;;;;;30.87;22.70;;;18.40;99.90;;;;;;5048048;28;20551;-72
2021/09/24 08:13:24;;;;;;;30.80;25.40;;;18.40;99.90;;;;;;5042304;28;20533;-73
2021/09/24 08:15:51;;;;;;;28.97;23.87;;;18.40;99.90;;;;;;5036022;28;20436;-73
2021/09/24 08:18:17;;;;;;;32.67;23.27;;;18.50;99.90;;;;;;5042496;28;20424;-73
2021/09/24 08:20:44;;;;;;;28.33;22.17;;;18.50;99.90;;;;;;5055721;28;20412;-72
2021/09/24 08:23:11;;;;;;;27.60;21.80;;;18.50;99.90;;;;;;5048065;28;20471;-73
2021/09/24 08:25:36;;;;;;;29.83;23.33;;;18.50;99.90;;;;;;5036316;28;20413;-73
2021/09/24 08:28:03;;;;;;;28.87;22.57;;;18.50;99.90;;;;;;5036401;28;20405;-73
2021/09/24 08:30:29;;;;;;;30.23;22.90;;;18.50;99.90;;;;;;5036351;28;20166;-73
2021/09/24 08:32:56;;;;;;;28.47;22.80;;;18.50;99.90;;;;;;5036519;28;20435;-73
2021/09/24 08:35:23;;;;;;;30.43;23.30;;;18.50;99.90;;;;;;5052366;28;20420;-73
2021/09/24 08:37:50;;;;;;;27.50;21.63;;;18.50;99.90;;;;;;5054807;28;20412;-72
2021/09/24 08:40:17;;;;;;;26.53;22.53;;;18.50;99.90;;;;;;5055902;28;20407;-73
2021/09/24 08:42:44;;;;;;;28.70;22.57;;;18.50;99.90;;;;;;5049518;28;20416;-73
2021/09/24 08:45:16;;;;;;;26.40;21.63;;;18.50;99.90;;;;;;5055455;28;20459;-73
2021/09/24 08:47:42;;;;;;;27.17;21.50;;;18.50;99.90;;;;;;5062913;28;20502;-72
2021/09/24 08:50:09;;;;;;;30.37;23.43;;;18.50;99.90;;;;;;5035468;28;20886;-73
2021/09/24 08:52:36;;;;;;;27.10;21.67;;;18.50;99.90;;;;;;5035531;28;20468;-72
2021/09/24 08:55:04;;;;;;;30.47;24.40;;;18.40;99.90;;;;;;5035757;28;20420;-73
2021/09/24 08:57:30;;;;;;;23.53;20.80;;;18.40;99.90;;;;;;5035819;28;20428;-73
2021/09/24 08:59:56;;;;;;;25.70;21.43;;;18.50;99.90;;;;;;5034825;28;20531;-73
2021/09/24 09:02:21;;;;;;;25.37;21.00;;;18.50;99.90;;;;;;5050791;28;20518;-72
2021/09/24 09:04:47;;;;;;;23.70;20.43;;;18.50;99.90;;;;;;5034847;28;20186;-72
2021/09/24 09:07:15;;;;;;;24.57;19.93;;;18.50;99.90;;;;;;5035455;28;20187;-73
2021/09/24 09:09:46;;;;;;;25.27;20.57;;;18.50;99.90;;;;;;5050218;28;20185;-71
2021/09/24 09:12:19;;;;;;;24.80;20.80;;;18.50;99.90;;;;;;5053417;28;20492;-72
2021/09/24 09:14:59;;;;;;;27.90;21.50;;;18.50;99.90;;;;;;5054926;28;20423;-71
2021/09/24 09:17:38;;;;;;;26.00;21.70;;;18.50;99.90;;;;;;5048190;28;20420;-72
2021/09/24 09:20:23;;;;;;;26.77;22.63;;;18.40;99.90;;;;;;5042733;28;20431;-71
2021/09/24 09:23:06;;;;;;;27.30;21.83;;;18.40;99.90;;;;;;5041239;28;20425;-71
2021/09/24 09:25:53;;;;;;;29.13;23.20;;;18.40;99.90;;;;;;5054852;28;20396;-71
2021/09/24 09:28:52;;;;;;;30.20;24.60;;;18.40;99.90;;;;;;5042702;28;20409;-71
2021/09/24 09:31:25;;;;;;;32.60;23.73;;;18.40;99.90;;;;;;5001293;28;20490;-71
2021/09/24 09:33:58;;;;;;;31.90;24.40;;;18.30;99.90;;;;;;5040649;28;20919;-71
2021/09/24 09:36:30;;;;;;;31.57;23.73;;;18.30;99.90;;;;;;5054683;28;20396;-72
2021/09/24 09:38:57;;;;;;;31.37;23.83;;;18.30;99.90;;;;;;5042657;28;20405;-71
2021/09/24 09:41:24;;;;;;;32.03;24.40;;;18.40;99.90;;;;;;5038586;28;20401;-71
2021/09/24 09:43:53;;;;;;;30.97;24.33;;;18.40;99.90;;;;;;5073506;28;20403;-70
2021/09/24 09:46:25;;;;;;;33.00;25.13;;;18.40;99.90;;;;;;5056816;28;20459;-71
2021/09/24 09:49:08;;;;;;;30.93;23.73;;;18.40;99.90;;;;;;5038003;28;20741;-73
2021/09/24 09:51:37;;;;;;;30.40;24.53;;;18.40;99.90;;;;;;5047636;28;20781;-70
2021/09/24 09:54:05;;;;;;;29.50;24.30;;;18.40;99.90;;;;;;5038449;28;20417;-72
2021/09/24 09:56:39;;;;;;;31.30;24.70;;;18.40;99.90;;;;;;5016985;28;20484;-71
2021/09/24 09:59:25;;;;;;;33.07;25.57;;;18.40;99.90;;;;;;5034510;28;20999;-71
2021/09/24 10:02:14;;;;;;;31.37;24.97;;;18.50;99.90;;;;;;5015780;28;20429;-70
2021/09/24 10:04:57;;;;;;;29.77;23.40;;;18.50;99.90;;;;;;5033956;28;20487;-71
2021/09/24 10:07:35;;;;;;;31.17;22.50;;;18.50;99.90;;;;;;5038065;28;20421;-72
2021/09/24 10:10:06;;;;;;;27.70;23.57;;;18.50;99.90;;;;;;5027178;28;20435;-72
2021/09/24 10:12:32;;;;;;;31.43;24.57;;;18.60;99.90;;;;;;5034827;28;20543;-73
2021/09/24 10:14:58;;;;;;;26.37;23.10;;;18.60;99.90;;;;;;5043215;28;20983;-72
2021/09/24 10:17:24;;;;;;;27.67;22.80;;;18.70;99.90;;;;;;5006785;28;20185;-72
2021/09/24 10:19:53;;;;;;;27.00;22.27;;;18.60;99.90;;;;;;5033654;28;20182;-72
2021/09/24 10:22:19;;;;;;;27.40;23.67;;;18.60;99.90;;;;;;5034649;28;20448;-72
2021/09/24 10:24:45;;;;;;;27.30;23.40;;;18.70;99.90;;;;;;5053711;28;20409;-71
2021/09/24 10:27:17;;;;;;;29.13;24.40;;;18.70;99.90;;;;;;5047078;28;20420;-72
2021/09/24 10:29:45;;;;;;;27.50;23.00;;;18.80;99.90;;;;;;5034176;28;20400;-73
2021/09/24 10:32:18;;;;;;;28.27;22.43;;;18.90;99.90;;;;;;5033899;28;20498;-73
2021/09/24 10:35:12;;;;;;;25.33;22.27;;;19.00;99.90;;;;;;5034290;28;20504;-71
2021/09/24 10:37:40;;;;;;;24.83;21.97;;;19.10;99.90;;;;;;5033911;28;20412;-72
2021/09/24 10:40:32;;;;;;;22.93;20.60;;;19.10;99.90;;;;;;5033125;28;21039;-72
2021/09/24 10:43:00;;;;;;;21.77;19.57;;;19.20;99.90;;;;;;5029003;28;20433;-73
2021/09/24 10:45:29;;;;;;;22.20;19.77;;;19.30;99.90;;;;;;5040866;28;20431;-72
2021/09/24 10:48:19;;;;;;;22.17;19.13;;;19.50;99.90;;;;;;5052819;28;20518;-73
2021/09/24 10:50:47;;;;;;;22.00;19.90;;;19.60;99.90;;;;;;5035821;28;20463;-73
2021/09/24 10:53:24;;;;;;;21.80;19.60;;;19.70;99.90;;;;;;5053440;28;20408;-72
2021/09/24 10:55:53;;;;;;;21.77;19.57;;;19.80;99.90;;;;;;5052938;28;20396;-72
2021/09/24 10:58:27;;;;;;;22.07;19.80;;;19.80;99.90;;;;;;5053114;28;20554;-73
2021/09/24 11:00:57;;;;;;;19.30;17.40;;;19.80;99.90;;;;;;5052556;28;20408;-70
2021/09/24 11:03:25;;;;;;;22.07;19.87;;;19.70;99.90;;;;;;5053669;28;20407;-74
2021/09/24 11:06:06;;;;;;;22.73;18.80;;;19.80;99.90;;;;;;5052603;28;20975;-71
2021/09/24 11:08:37;;;;;;;18.43;16.63;;;19.90;99.90;;;;;;5053251;28;20420;-71
2021/09/24 11:11:12;;;;;;;20.80;18.80;;;20.00;99.90;;;;;;5052414;28;20456;-71
2021/09/24 11:13:43;;;;;;;19.83;17.90;;;20.20;99.90;;;;;;5053188;28;20442;-71
2021/09/24 11:16:18;;;;;;;18.20;16.50;;;20.30;99.90;;;;;;5052395;28;20756;-71
2021/09/24 11:18:48;;;;;;;20.27;18.37;;;20.40;99.90;;;;;;5035391;28;20428;-71
2021/09/24 11:21:18;;;;;;;20.47;18.50;;;20.50;99.90;;;;;;5052731;28;20396;-71
2021/09/24 11:23:46;;;;;;;18.90;17.20;;;20.50;99.90;;;;;;5053021;28;20389;-71
2021/09/24 11:26:17;;;;;;;17.00;15.50;;;20.50;99.90;;;;;;5052234;28;20462;-71
2021/09/24 11:28:45;;;;;;;16.07;14.57;;;20.50;99.90;;;;;;5034904;28;20489;-71
2021/09/24 11:31:12;;;;;;;15.00;13.80;;;20.50;99.90;;;;;;5033962;28;20505;-71
2021/09/24 11:33:41;;;;;;;14.77;13.50;;;20.40;99.90;;;;;;5052826;28;20396;-71
2021/09/24 11:36:08;;;;;;;15.73;14.43;;;20.40;99.90;;;;;;5051895;28;20420;-71
2021/09/24 11:38:34;;;;;;;14.20;12.83;;;20.30;99.90;;;;;;5052700;28;20408;-71
2021/09/24 11:41:00;;;;;;;13.77;12.67;;;20.30;99.90;;;;;;5052011;28;20450;-71
2021/09/24 11:43:35;;;;;;;14.77;13.57;;;20.30;99.90;;;;;;5052185;28;20435;-71
2021/09/24 11:46:14;;;;;;;16.13;14.93;;;20.20;99.90;;;;;;5052153;28;20495;-71
2021/09/24 11:48:40;;;;;;;14.10;12.70;;;20.20;99.90;;;;;;5052589;28;20400;-71
2021/09/24 11:51:15;;;;;;;13.33;12.13;;;20.10;99.90;;;;;;5051228;28;20460;-71
2021/09/24 11:53:55;;;;;;;13.53;12.13;;;20.10;99.90;;;;;;5052089;28;20457;-71
2021/09/24 11:56:34;;;;;;;13.43;12.23;;;20.10;99.90;;;;;;5034617;28;20408;-71
2021/09/24 11:59:02;;;;;;;13.20;12.10;;;20.10;99.90;;;;;;5051955;28;20453;-71
2021/09/24 12:01:28;;;;;;;14.63;12.57;;;20.20;99.90;;;;;;5052462;28;20408;-71
2021/09/24 12:03:58;;;;;;;11.93;11.03;;;20.20;99.90;;;;;;5051237;28;20416;-71
2021/09/24 12:06:27;;;;;;;12.53;11.30;;;20.20;99.90;;;;;;5052171;28;20174;-71
2021/09/24 12:08:59;;;;;;;12.60;11.60;;;20.20;99.90;;;;;;5051459;28;20420;-71
2021/09/24 12:11:29;;;;;;;13.63;12.10;;;20.20;99.90;;;;;;5052288;28;20443;-71
2021/09/24 12:14:02;;;;;;;14.07;12.90;;;20.20;99.90;;;;;;5051692;28;20417;-71
2021/09/24 12:16:36;;;;;;;13.17;11.90;;;20.20;99.90;;;;;;5034500;28;20415;-71
2021/09/24 12:19:04;;;;;;;13.30;12.10;;;20.20;99.90;;;;;;5034395;28;20525;-71
2021/09/24 12:21:48;;;;;;;13.87;12.67;;;20.30;99.90;;;;;;5052180;28;20441;-71
2021/09/24 12:24:35;;;;;;;12.90;11.80;;;20.30;99.90;;;;;;5051585;28;20400;-71
2021/09/24 12:27:30;;;;;;;13.80;12.60;;;20.30;99.90;;;;;;5051587;28;20409;-71
2021/09/24 12:30:15;;;;;;;14.33;13.03;;;20.20;99.90;;;;;;5040739;28;20842;-71
2021/09/24 12:32:41;;;;;;;13.23;11.87;;;20.20;99.90;;;;;;5034414;28;20447;-71